This is the latest recevied weather packets stored in our database for station/object LU5DTF-1. If no packets are shown the sender has not sent any weather packets the latest 10 day(s).
| Time | Temp. | Humidity | Pressure | Rain* | Wind** | Luminosity | Snow |
|---|---|---|---|---|---|---|---|
| 1777866903 | 12.22° C | 66% | 1010.8 hPa | 0 mm | - | - | - |
| 1777865703 | 12.22° C | 65% | 1011 hPa | 0 mm | - | - | - |
| 1777847404 | 13.89° C | 58% | 1012.9 hPa | 0 mm | - | - | - |
| 1777846804 | 13.89° C | 59% | 1012.8 hPa | 0 mm | - | - | - |
| 1777842304 | 13.89° C | 54% | 1013.5 hPa | 0 mm | - | - | - |
| 1777840504 | 13.89° C | 57% | 1013.6 hPa | 0 mm | - | - | - |
| 1777839308 | 13.89° C | 55% | 1013.7 hPa | 0 mm | - | - | - |
| 1777837504 | 13.89° C | 54% | 1014.3 hPa | 0 mm | - | - | - |
| 1777835404 | 13.89° C | 53% | 1015 hPa | 0 mm | - | - | - |
| 1777835104 | 13.89° C | 54% | 1014.9 hPa | 0 mm | - | - | - |
| 1777832404 | 14.44° C | 50% | 1015.6 hPa | 0 mm | - | - | - |
| 1777830904 | 13.89° C | 53% | 1016.2 hPa | 0 mm | - | - | - |
| 1777828504 | 13.89° C | 49% | 1016.6 hPa | 0 mm | - | - | - |
| 1777825204 | 13.33° C | 52% | 1017.9 hPa | 0 mm | - | - | - |
| 1777819804 | 12.22° C | 50% | 1020.5 hPa | 0 mm | - | - | - |
| 1777817404 | 11.67° C | 49% | 1021 hPa | 0 mm | - | - | - |
| 1777816504 | 11.11° C | 52% | 1021.3 hPa | 0 mm | - | - | - |
| 1777810804 | 8.89° C | 58% | 1022 hPa | 0 mm | - | - | - |
| 1777803004 | 7.78° C | 61% | 1022.5 hPa | 0 mm | - | - | - |
| 1777802404 | 7.78° C | 64% | 1022.5 hPa | 0 mm | - | - | - |
| 1777801203 | 7.78° C | 68% | 1022.3 hPa | 0 mm | - | - | - |
| 1777800903 | 7.78° C | 69% | 1022.5 hPa | 0 mm | - | - | - |
| 1777800603 | 7.78° C | 68% | 1022.5 hPa | 0 mm | - | - | - |
| 1777800303 | 7.78° C | 69% | 1022.5 hPa | 0 mm | - | - | - |
| 1777800003 | 7.78° C | 69% | 1022.5 hPa | 0 mm | - | - | - |
* Rain latest hour (hover to see other rain measurements)
** Current wind speed in m/s (hover to see current wind gust speed)